sensor_id;sensor_type;location;lat;lon;timestamp;pressure;altitude;pressure_sealevel;temperature;humidity
54924;BME280;40825;52.270;20.984;2022-09-21T00:00:29;100746.89;;;9.56;87.35
54924;BME280;40825;52.270;20.984;2022-09-21T00:01:13;100746.36;;;9.56;87.63
54924;BME280;40825;52.270;20.984;2022-09-21T00:01:38;100753.30;;;9.56;87.60
54924;BME280;40825;52.270;20.984;2022-09-21T00:02:45;100752.33;;;9.57;87.48
54924;BME280;40825;52.270;20.984;2022-09-21T00:03:13;100754.59;;;9.57;87.68
54924;BME280;40825;52.270;20.984;2022-09-21T00:03:40;100752.67;;;9.58;87.49
54924;BME280;40825;52.270;20.984;2022-09-21T00:04:06;100754.44;;;9.58;87.37
54924;BME280;40825;52.270;20.984;2022-09-21T00:04:30;100754.38;;;9.59;87.55
54924;BME280;40825;52.270;20.984;2022-09-21T00:04:52;100749.80;;;9.58;87.60
54924;BME280;40825;52.270;20.984;2022-09-21T00:05:14;100752.73;;;9.59;87.53
54924;BME280;40825;52.270;20.984;2022-09-21T00:05:47;100751.34;;;9.59;87.67
54924;BME280;40825;52.270;20.984;2022-09-21T00:06:14;100754.10;;;9.60;87.54
54924;BME280;40825;52.270;20.984;2022-09-21T00:06:39;100751.52;;;9.60;87.62
54924;BME280;40825;52.270;20.984;2022-09-21T00:07:05;100749.02;;;9.60;87.89
54924;BME280;40825;52.270;20.984;2022-09-21T00:07:27;100753.07;;;9.61;87.74
54924;BME280;40825;52.270;20.984;2022-09-21T00:07:49;100750.48;;;9.62;87.79
54924;BME280;40825;52.270;20.984;2022-09-21T00:08:13;100750.36;;;9.61;87.71
54924;BME280;40825;52.270;20.984;2022-09-21T00:08:37;100752.53;;;9.61;87.62
54924;BME280;40825;52.270;20.984;2022-09-21T00:08:59;100750.59;;;9.61;87.63
54924;BME280;40825;52.270;20.984;2022-09-21T00:09:28;100752.53;;;9.61;87.89
54924;BME280;40825;52.270;20.984;2022-09-21T00:09:50;100749.80;;;9.62;88.08
54924;BME280;40825;52.270;20.984;2022-09-21T00:10:14;100750.04;;;9.61;87.80
54924;BME280;40825;52.270;20.984;2022-09-21T00:10:49;100747.90;;;9.61;87.69
54924;BME280;40825;52.270;20.984;2022-09-21T00:11:14;100747.23;;;9.61;87.70
54924;BME280;40825;52.270;20.984;2022-09-21T00:11:39;100749.88;;;9.61;87.80
54924;BME280;40825;52.270;20.984;2022-09-21T00:12:06;100744.80;;;9.60;87.95
54924;BME280;40825;52.270;20.984;2022-09-21T00:12:33;100749.13;;;9.60;87.89
54924;BME280;40825;52.270;20.984;2022-09-21T00:12:57;100748.50;;;9.59;87.89
54924;BME280;40825;52.270;20.984;2022-09-21T00:13:19;100744.89;;;9.58;87.95
54924;BME280;40825;52.270;20.984;2022-09-21T00:13:43;100749.94;;;9.59;87.88
54924;BME280;40825;52.270;20.984;2022-09-21T00:14:09;100747.07;;;9.59;87.86
54924;BME280;40825;52.270;20.984;2022-09-21T00:14:32;100747.54;;;9.60;87.82
54924;BME280;40825;52.270;20.984;2022-09-21T00:14:57;100744.06;;;9.60;87.86
54924;BME280;40825;52.270;20.984;2022-09-21T00:15:26;100749.17;;;9.61;87.78
54924;BME280;40825;52.270;20.984;2022-09-21T00:15:57;100748.52;;;9.62;87.76
54924;BME280;40825;52.270;20.984;2022-09-21T00:16:22;100747.59;;;9.62;87.79
54924;BME280;40825;52.270;20.984;2022-09-21T00:17:05;100749.12;;;9.63;87.68
54924;BME280;40825;52.270;20.984;2022-09-21T00:17:31;100745.52;;;9.62;87.72
54924;BME280;40825;52.270;20.984;2022-09-21T00:17:53;100749.02;;;9.62;87.77
54924;BME280;40825;52.270;20.984;2022-09-21T00:18:26;100748.30;;;9.62;87.84
54924;BME280;40825;52.270;20.984;2022-09-21T00:19:10;100751.36;;;9.62;88.05
54924;BME280;40825;52.270;20.984;2022-09-21T00:19:34;100746.48;;;9.62;88.27
54924;BME280;40825;52.270;20.984;2022-09-21T00:19:58;100747.63;;;9.62;88.11
54924;BME280;40825;52.270;20.984;2022-09-21T00:20:26;100744.69;;;9.61;87.98
54924;BME280;40825;52.270;20.984;2022-09-21T00:20:57;100747.04;;;9.61;87.91
54924;BME280;40825;52.270;20.984;2022-09-21T00:21:25;100746.86;;;9.61;87.93
54924;BME280;40825;52.270;20.984;2022-09-21T00:21:53;100745.20;;;9.61;87.98
54924;BME280;40825;52.270;20.984;2022-09-21T00:22:15;100749.47;;;9.61;88.01
54924;BME280;40825;52.270;20.984;2022-09-21T00:22:39;100746.80;;;9.61;88.00
54924;BME280;40825;52.270;20.984;2022-09-21T00:23:05;100741.77;;;9.62;88.02
54924;BME280;40825;52.270;20.984;2022-09-21T00:23:29;100745.20;;;9.63;88.12
54924;BME280;40825;52.270;20.984;2022-09-21T00:23:55;100739.20;;;9.62;88.08
54924;BME280;40825;52.270;20.984;2022-09-21T00:24:23;100744.64;;;9.63;87.97
54924;BME280;40825;52.270;20.984;2022-09-21T00:25:05;100743.09;;;9.63;88.17
54924;BME280;40825;52.270;20.984;2022-09-21T00:26:25;100746.75;;;9.63;88.03
54924;BME280;40825;52.270;20.984;2022-09-21T00:26:53;100746.88;;;9.64;88.00
54924;BME280;40825;52.270;20.984;2022-09-21T00:27:23;100747.71;;;9.65;88.29
54924;BME280;40825;52.270;20.984;2022-09-21T00:27:50;100747.68;;;9.65;88.53
54924;BME280;40825;52.270;20.984;2022-09-21T00:28:16;100745.70;;;9.65;88.25
54924;BME280;40825;52.270;20.984;2022-09-21T00:28:50;100745.43;;;9.66;88.09
54924;BME280;40825;52.270;20.984;2022-09-21T00:29:20;100752.13;;;9.67;88.12
54924;BME280;40825;52.270;20.984;2022-09-21T00:29:49;100748.29;;;9.67;88.40
54924;BME280;40825;52.270;20.984;2022-09-21T00:30:14;100747.55;;;9.68;88.19
54924;BME280;40825;52.270;20.984;2022-09-21T00:30:42;100745.95;;;9.68;88.14
54924;BME280;40825;52.270;20.984;2022-09-21T00:31:14;100750.98;;;9.69;88.13
54924;BME280;40825;52.270;20.984;2022-09-21T00:31:37;100752.56;;;9.69;88.43
54924;BME280;40825;52.270;20.984;2022-09-21T00:32:08;100752.85;;;9.70;88.47
54924;BME280;40825;52.270;20.984;2022-09-21T00:32:34;100747.98;;;9.70;88.27
54924;BME280;40825;52.270;20.984;2022-09-21T00:33:02;100750.45;;;9.70;88.15
54924;BME280;40825;52.270;20.984;2022-09-21T00:33:28;100750.61;;;9.70;88.22
54924;BME280;40825;52.270;20.984;2022-09-21T00:33:52;100752.04;;;9.70;88.29
54924;BME280;40825;52.270;20.984;2022-09-21T00:34:16;100754.38;;;9.70;88.15
54924;BME280;40825;52.270;20.984;2022-09-21T00:34:50;100755.05;;;9.71;88.13
54924;BME280;40825;52.270;20.984;2022-09-21T00:35:30;100749.54;;;9.70;88.23
54924;BME280;40825;52.270;20.984;2022-09-21T00:36:32;100750.92;;;9.72;88.08
54924;BME280;40825;52.270;20.984;2022-09-21T00:36:57;100751.92;;;9.73;88.13
54924;BME280;40825;52.270;20.984;2022-09-21T00:37:21;100751.36;;;9.73;88.16
54924;BME280;40825;52.270;20.984;2022-09-21T00:38:05;100752.52;;;9.74;88.14
54924;BME280;40825;52.270;20.984;2022-09-21T00:38:29;100751.45;;;9.74;88.08
54924;BME280;40825;52.270;20.984;2022-09-21T00:38:54;100749.98;;;9.74;88.11
54924;BME280;40825;52.270;20.984;2022-09-21T00:39:19;100746.98;;;9.74;88.08
54924;BME280;40825;52.270;20.984;2022-09-21T00:39:43;100748.47;;;9.75;88.63
54924;BME280;40825;52.270;20.984;2022-09-21T00:40:08;100749.13;;;9.75;88.64
54924;BME280;40825;52.270;20.984;2022-09-21T00:40:33;100749.00;;;9.75;88.46
54924;BME280;40825;52.270;20.984;2022-09-21T00:41:00;100751.44;;;9.75;88.43
54924;BME280;40825;52.270;20.984;2022-09-21T00:41:29;100752.50;;;9.76;88.39
54924;BME280;40825;52.270;20.984;2022-09-21T00:42:01;100752.97;;;9.76;88.42
54924;BME280;40825;52.270;20.984;2022-09-21T00:43:15;100754.88;;;9.77;88.50
54924;BME280;40825;52.270;20.984;2022-09-21T00:43:42;100753.90;;;9.77;88.40
54924;BME280;40825;52.270;20.984;2022-09-21T00:44:57;100755.60;;;9.78;88.44
54924;BME280;40825;52.270;20.984;2022-09-21T00:47:02;100754.51;;;9.77;88.70
54924;BME280;40825;52.270;20.984;2022-09-21T00:47:54;100755.43;;;9.76;89.28
54924;BME280;40825;52.270;20.984;2022-09-21T00:48:51;100760.88;;;9.77;88.73
54924;BME280;40825;52.270;20.984;2022-09-21T00:50:03;100757.23;;;9.78;88.53
54924;BME280;40825;52.270;20.984;2022-09-21T00:50:34;100756.96;;;9.79;88.51
54924;BME280;40825;52.270;20.984;2022-09-21T00:51:00;100755.77;;;9.78;88.49
54924;BME280;40825;52.270;20.984;2022-09-21T00:51:31;100753.92;;;9.79;88.66
54924;BME280;40825;52.270;20.984;2022-09-21T00:52:27;100755.08;;;9.80;88.51
54924;BME280;40825;52.270;20.984;2022-09-21T00:53:08;100759.64;;;9.80;88.48
54924;BME280;40825;52.270;20.984;2022-09-21T00:53:30;100755.15;;;9.79;88.66
54924;BME280;40825;52.270;20.984;2022-09-21T00:54:07;100759.18;;;9.79;88.49
54924;BME280;40825;52.270;20.984;2022-09-21T00:55:16;100756.35;;;9.79;88.53
54924;BME280;40825;52.270;20.984;2022-09-21T00:55:22;100757.55;;;9.80;88.75
54924;BME280;40825;52.270;20.984;2022-09-21T00:56:06;100756.34;;;9.81;88.74
54924;BME280;40825;52.270;20.984;2022-09-21T00:56:31;100758.23;;;9.81;88.89
54924;BME280;40825;52.270;20.984;2022-09-21T00:57:03;100756.80;;;9.82;88.63
54924;BME280;40825;52.270;20.984;2022-09-21T00:57:28;100756.70;;;9.81;88.60
54924;BME280;40825;52.270;20.984;2022-09-21T00:57:57;100754.10;;;9.80;88.57
54924;BME280;40825;52.270;20.984;2022-09-21T00:58:25;100752.67;;;9.80;88.59
54924;BME280;40825;52.270;20.984;2022-09-21T00:58:56;100755.10;;;9.81;88.65
54924;BME280;40825;52.270;20.984;2022-09-21T00:59:21;100755.53;;;9.82;88.87
54924;BME280;40825;52.270;20.984;2022-09-21T00:59:49;100755.84;;;9.82;88.73
54924;BME280;40825;52.270;20.984;2022-09-21T01:00:41;100758.21;;;9.82;88.65
54924;BME280;40825;52.270;20.984;2022-09-21T01:01:04;100757.13;;;9.84;88.73
54924;BME280;40825;52.270;20.984;2022-09-21T01:01:26;100756.09;;;9.83;88.67
54924;BME280;40825;52.270;20.984;2022-09-21T01:01:52;100755.69;;;9.84;88.81
54924;BME280;40825;52.270;20.984;2022-09-21T01:02:16;100751.28;;;9.83;88.70
54924;BME280;40825;52.270;20.984;2022-09-21T01:02:40;100756.33;;;9.83;88.86
54924;BME280;40825;52.270;20.984;2022-09-21T01:03:03;100752.10;;;9.82;88.96
54924;BME280;40825;52.270;20.984;2022-09-21T01:03:29;100752.27;;;9.81;88.79
54924;BME280;40825;52.270;20.984;2022-09-21T01:04:00;100752.16;;;9.79;88.88
54924;BME280;40825;52.270;20.984;2022-09-21T01:04:24;100751.89;;;9.78;88.87
54924;BME280;40825;52.270;20.984;2022-09-21T01:05:26;100754.02;;;9.80;89.09
54924;BME280;40825;52.270;20.984;2022-09-21T01:05:54;100753.53;;;9.81;89.33
54924;BME280;40825;52.270;20.984;2022-09-21T01:06:20;100755.05;;;9.80;89.28
54924;BME280;40825;52.270;20.984;2022-09-21T01:06:45;100755.66;;;9.77;89.08
54924;BME280;40825;52.270;20.984;2022-09-21T01:07:16;100755.83;;;9.76;89.21
54924;BME280;40825;52.270;20.984;2022-09-21T01:07:43;100754.41;;;9.74;89.36
54924;BME280;40825;52.270;20.984;2022-09-21T01:08:06;100751.75;;;9.73;89.44
54924;BME280;40825;52.270;20.984;2022-09-21T01:08:36;100754.86;;;9.72;89.19
54924;BME280;40825;52.270;20.984;2022-09-21T01:09:02;100751.16;;;9.72;89.16
54924;BME280;40825;52.270;20.984;2022-09-21T01:09:25;100752.14;;;9.71;89.14
54924;BME280;40825;52.270;20.984;2022-09-21T01:09:53;100752.95;;;9.71;89.10
54924;BME280;40825;52.270;20.984;2022-09-21T01:10:21;100755.42;;;9.72;89.12
54924;BME280;40825;52.270;20.984;2022-09-21T01:14:35;100754.09;;;9.73;88.96
54924;BME280;40825;52.270;20.984;2022-09-21T01:16:15;100755.42;;;9.73;89.02
54924;BME280;40825;52.270;20.984;2022-09-21T01:16:45;100758.21;;;9.74;88.98
54924;BME280;40825;52.270;20.984;2022-09-21T01:17:17;100755.80;;;9.75;88.91
54924;BME280;40825;52.270;20.984;2022-09-21T01:19:32;100756.94;;;9.77;88.90
54924;BME280;40825;52.270;20.984;2022-09-21T01:23:52;100760.71;;;9.82;88.95
54924;BME280;40825;52.270;20.984;2022-09-21T01:29:21;100767.67;;;9.86;88.93
54924;BME280;40825;52.270;20.984;2022-09-21T01:29:54;100769.11;;;9.86;88.97
54924;BME280;40825;52.270;20.984;2022-09-21T01:30:23;100769.70;;;9.87;89.07
54924;BME280;40825;52.270;20.984;2022-09-21T01:30:49;100769.98;;;9.87;89.01
54924;BME280;40825;52.270;20.984;2022-09-21T01:31:16;100772.84;;;9.87;88.82
54924;BME280;40825;52.270;20.984;2022-09-21T01:31:53;100771.63;;;9.87;88.88
54924;BME280;40825;52.270;20.984;2022-09-21T01:32:23;100771.05;;;9.87;88.95
54924;BME280;40825;52.270;20.984;2022-09-21T01:32:48;100770.85;;;9.88;89.15
54924;BME280;40825;52.270;20.984;2022-09-21T01:33:15;100775.17;;;9.87;89.32
54924;BME280;40825;52.270;20.984;2022-09-21T01:33:50;100768.58;;;9.86;89.19
54924;BME280;40825;52.270;20.984;2022-09-21T01:34:27;100773.61;;;9.85;89.13
54924;BME280;40825;52.270;20.984;2022-09-21T01:34:55;100770.59;;;9.84;89.42
54924;BME280;40825;52.270;20.984;2022-09-21T01:35:33;100772.50;;;9.84;89.19
54924;BME280;40825;52.270;20.984;2022-09-21T01:36:12;100766.72;;;9.83;89.29
54924;BME280;40825;52.270;20.984;2022-09-21T01:36:42;100770.05;;;9.84;89.31
54924;BME280;40825;52.270;20.984;2022-09-21T01:37:06;100769.91;;;9.83;89.21
54924;BME280;40825;52.270;20.984;2022-09-21T01:37:42;100771.77;;;9.84;89.17
54924;BME280;40825;52.270;20.984;2022-09-21T01:38:12;100770.85;;;9.85;89.06
54924;BME280;40825;52.270;20.984;2022-09-21T01:38:50;100769.78;;;9.84;89.12
54924;BME280;40825;52.270;20.984;2022-09-21T01:39:18;100773.05;;;9.86;89.17
54924;BME280;40825;52.270;20.984;2022-09-21T01:40:02;100772.61;;;9.86;89.61
54924;BME280;40825;52.270;20.984;2022-09-21T01:40:48;100770.48;;;9.86;89.37
54924;BME280;40825;52.270;20.984;2022-09-21T01:41:13;100771.62;;;9.87;89.27
54924;BME280;40825;52.270;20.984;2022-09-21T01:41:36;100770.02;;;9.87;89.70
54924;BME280;40825;52.270;20.984;2022-09-21T01:42:03;100773.12;;;9.88;89.37
54924;BME280;40825;52.270;20.984;2022-09-21T01:42:26;100769.67;;;9.88;89.19
54924;BME280;40825;52.270;20.984;2022-09-21T01:42:53;100771.85;;;9.88;89.32
54924;BME280;40825;52.270;20.984;2022-09-21T01:43:22;100765.48;;;9.88;89.36
54924;BME280;40825;52.270;20.984;2022-09-21T01:43:56;100771.11;;;9.88;89.17
54924;BME280;40825;52.270;20.984;2022-09-21T01:44:29;100773.84;;;9.89;89.23
54924;BME280;40825;52.270;20.984;2022-09-21T01:44:56;100773.73;;;9.89;89.23
54924;BME280;40825;52.270;20.984;2022-09-21T01:45:24;100772.19;;;9.88;89.67
54924;BME280;40825;52.270;20.984;2022-09-21T01:45:48;100769.73;;;9.88;89.42
54924;BME280;40825;52.270;20.984;2022-09-21T01:46:14;100777.29;;;9.87;89.32
54924;BME280;40825;52.270;20.984;2022-09-21T01:46:37;100774.41;;;9.86;89.27
54924;BME280;40825;52.270;20.984;2022-09-21T01:47:10;100772.95;;;9.85;89.27
54924;BME280;40825;52.270;20.984;2022-09-21T01:47:38;100773.67;;;9.85;89.26
54924;BME280;40825;52.270;20.984;2022-09-21T01:48:03;100775.72;;;9.86;89.42
54924;BME280;40825;52.270;20.984;2022-09-21T01:48:25;100775.11;;;9.85;89.35
54924;BME280;40825;52.270;20.984;2022-09-21T01:48:58;100774.27;;;9.84;89.34
54924;BME280;40825;52.270;20.984;2022-09-21T01:49:27;100777.79;;;9.83;89.38
54924;BME280;40825;52.270;20.984;2022-09-21T01:49:53;100780.59;;;9.82;89.32
54924;BME280;40825;52.270;20.984;2022-09-21T01:50:19;100777.43;;;9.81;89.34
54924;BME280;40825;52.270;20.984;2022-09-21T01:50:44;100777.38;;;9.82;89.37
54924;BME280;40825;52.270;20.984;2022-09-21T01:51:10;100779.90;;;9.82;89.29
54924;BME280;40825;52.270;20.984;2022-09-21T01:51:35;100776.40;;;9.81;89.76
54924;BME280;40825;52.270;20.984;2022-09-21T01:52:01;100777.27;;;9.81;89.87
54924;BME280;40825;52.270;20.984;2022-09-21T01:52:30;100781.30;;;9.82;89.47
54924;BME280;40825;52.270;20.984;2022-09-21T01:53:40;100780.04;;;9.82;89.52
54924;BME280;40825;52.270;20.984;2022-09-21T01:53:46;100780.06;;;9.82;89.39
54924;BME280;40825;52.270;20.984;2022-09-21T01:54:16;100781.77;;;9.81;89.49
54924;BME280;40825;52.270;20.984;2022-09-21T01:54:45;100780.69;;;9.81;89.44
54924;BME280;40825;52.270;20.984;2022-09-21T01:55:14;100783.30;;;9.82;89.37
54924;BME280;40825;52.270;20.984;2022-09-21T01:55:50;100783.13;;;9.81;89.32
54924;BME280;40825;52.270;20.984;2022-09-21T01:56:42;100783.41;;;9.82;89.34
54924;BME280;40825;52.270;20.984;2022-09-21T01:57:11;100784.06;;;9.83;89.30
54924;BME280;40825;52.270;20.984;2022-09-21T01:58:21;100785.98;;;9.83;89.27
54924;BME280;40825;52.270;20.984;2022-09-21T02:00:25;100786.44;;;9.83;89.34
54924;BME280;40825;52.270;20.984;2022-09-21T02:01:03;100787.44;;;9.84;89.30
54924;BME280;40825;52.270;20.984;2022-09-21T02:01:26;100790.58;;;9.85;89.46
54924;BME280;40825;52.270;20.984;2022-09-21T02:01:52;100787.70;;;9.85;89.54
54924;BME280;40825;52.270;20.984;2022-09-21T02:02:21;100785.69;;;9.85;89.41
54924;BME280;40825;52.270;20.984;2022-09-21T02:03:32;100791.69;;;9.87;89.38
54924;BME280;40825;52.270;20.984;2022-09-21T02:03:58;100789.33;;;9.88;89.45
54924;BME280;40825;52.270;20.984;2022-09-21T02:04:22;100788.94;;;9.88;89.33
54924;BME280;40825;52.270;20.984;2022-09-21T02:04:44;100787.65;;;9.88;89.33
54924;BME280;40825;52.270;20.984;2022-09-21T02:05:09;100789.77;;;9.88;89.27
54924;BME280;40825;52.270;20.984;2022-09-21T02:05:36;100787.02;;;9.89;89.27
54924;BME280;40825;52.270;20.984;2022-09-21T02:06:12;100790.31;;;9.90;89.31
54924;BME280;40825;52.270;20.984;2022-09-21T02:06:55;100784.48;;;9.89;89.22
54924;BME280;40825;52.270;20.984;2022-09-21T02:07:19;100784.85;;;9.89;89.24
54924;BME280;40825;52.270;20.984;2022-09-21T02:07:45;100785.96;;;9.90;89.23
54924;BME280;40825;52.270;20.984;2022-09-21T02:08:08;100790.45;;;9.90;89.21
54924;BME280;40825;52.270;20.984;2022-09-21T02:08:35;100787.23;;;9.90;89.17
54924;BME280;40825;52.270;20.984;2022-09-21T02:08:59;100790.94;;;9.91;89.14
54924;BME280;40825;52.270;20.984;2022-09-21T02:09:21;100790.89;;;9.91;89.25
54924;BME280;40825;52.270;20.984;2022-09-21T02:09:46;100790.52;;;9.91;89.22
54924;BME280;40825;52.270;20.984;2022-09-21T02:10:12;100788.64;;;9.91;89.22
54924;BME280;40825;52.270;20.984;2022-09-21T02:10:42;100790.02;;;9.90;89.41
54924;BME280;40825;52.270;20.984;2022-09-21T02:11:19;100789.91;;;9.89;89.35
54924;BME280;40825;52.270;20.984;2022-09-21T02:11:43;100788.98;;;9.89;89.40
54924;BME280;40825;52.270;20.984;2022-09-21T02:12:05;100791.29;;;9.89;89.40
54924;BME280;40825;52.270;20.984;2022-09-21T02:12:30;100785.52;;;9.88;89.34
54924;BME280;40825;52.270;20.984;2022-09-21T02:12:56;100788.52;;;9.88;89.38
54924;BME280;40825;52.270;20.984;2022-09-21T02:13:22;100788.75;;;9.88;89.36
54924;BME280;40825;52.270;20.984;2022-09-21T02:13:48;100791.86;;;9.87;89.53
54924;BME280;40825;52.270;20.984;2022-09-21T02:14:15;100792.13;;;9.87;89.44
54924;BME280;40825;52.270;20.984;2022-09-21T02:14:40;100790.64;;;9.86;89.50
54924;BME280;40825;52.270;20.984;2022-09-21T02:15:23;100787.17;;;9.85;89.46
54924;BME280;40825;52.270;20.984;2022-09-21T02:17:11;100790.48;;;9.86;89.65
54924;BME280;40825;52.270;20.984;2022-09-21T02:17:59;100789.17;;;9.86;89.60
54924;BME280;40825;52.270;20.984;2022-09-21T02:18:49;100792.73;;;9.88;89.72
54924;BME280;40825;52.270;20.984;2022-09-21T02:20:19;100795.27;;;9.84;89.72
54924;BME280;40825;52.270;20.984;2022-09-21T02:20:46;100796.90;;;9.83;90.14
54924;BME280;40825;52.270;20.984;2022-09-21T02:21:14;100797.54;;;9.84;89.81
54924;BME280;40825;52.270;20.984;2022-09-21T02:22:01;100796.11;;;9.84;89.60
54924;BME280;40825;52.270;20.984;2022-09-21T02:23:53;100796.81;;;9.83;90.04
54924;BME280;40825;52.270;20.984;2022-09-21T02:24:26;100797.31;;;9.83;89.79
54924;BME280;40825;52.270;20.984;2022-09-21T02:24:53;100797.70;;;9.83;89.65
54924;BME280;40825;52.270;20.984;2022-09-21T02:25:30;100795.88;;;9.83;89.63
54924;BME280;40825;52.270;20.984;2022-09-21T02:26:25;100794.20;;;9.84;89.65
54924;BME280;40825;52.270;20.984;2022-09-21T02:28:00;100797.49;;;9.82;90.07
54924;BME280;40825;52.270;20.984;2022-09-21T02:28:46;100794.87;;;9.81;90.12
54924;BME280;40825;52.270;20.984;2022-09-21T02:30:21;100793.19;;;9.82;89.69
54924;BME280;40825;52.270;20.984;2022-09-21T02:30:53;100792.06;;;9.83;89.65
54924;BME280;40825;52.270;20.984;2022-09-21T02:31:33;100796.16;;;9.82;90.01
54924;BME280;40825;52.270;20.984;2022-09-21T02:32:02;100793.63;;;9.81;90.06
54924;BME280;40825;52.270;20.984;2022-09-21T02:32:33;100789.52;;;9.80;89.89
54924;BME280;40825;52.270;20.984;2022-09-21T02:33:18;100792.20;;;9.80;89.85
54924;BME280;40825;52.270;20.984;2022-09-21T02:34:20;100793.16;;;9.81;89.82
54924;BME280;40825;52.270;20.984;2022-09-21T02:34:50;100793.14;;;9.81;89.66
54924;BME280;40825;52.270;20.984;2022-09-21T02:35:34;100795.42;;;9.81;89.79
54924;BME280;40825;52.270;20.984;2022-09-21T02:37:06;100795.05;;;9.83;89.71
54924;BME280;40825;52.270;20.984;2022-09-21T02:37:52;100792.55;;;9.83;89.83
54924;BME280;40825;52.270;20.984;2022-09-21T02:38:38;100793.67;;;9.84;89.69
54924;BME280;40825;52.270;20.984;2022-09-21T02:40:33;100793.80;;;9.84;89.61
54924;BME280;40825;52.270;20.984;2022-09-21T02:42:37;100792.34;;;9.86;89.87
54924;BME280;40825;52.270;20.984;2022-09-21T02:43:24;100795.77;;;9.86;89.69
54924;BME280;40825;52.270;20.984;2022-09-21T02:43:57;100796.38;;;9.85;89.87
54924;BME280;40825;52.270;20.984;2022-09-21T02:44:55;100799.76;;;9.85;89.69
54924;BME280;40825;52.270;20.984;2022-09-21T02:45:29;100800.10;;;9.87;90.21
54924;BME280;40825;52.270;20.984;2022-09-21T02:47:11;100798.88;;;9.85;89.85
54924;BME280;40825;52.270;20.984;2022-09-21T02:48:31;100801.77;;;9.85;90.26
54924;BME280;40825;52.270;20.984;2022-09-21T02:50:54;100804.34;;;9.86;90.10
54924;BME280;40825;52.270;20.984;2022-09-21T02:51:24;100801.97;;;9.86;89.78
54924;BME280;40825;52.270;20.984;2022-09-21T02:51:52;100801.48;;;9.87;90.11
54924;BME280;40825;52.270;20.984;2022-09-21T02:52:19;100802.52;;;9.87;90.08
54924;BME280;40825;52.270;20.984;2022-09-21T02:52:48;100801.15;;;9.87;90.15
54924;BME280;40825;52.270;20.984;2022-09-21T02:53:20;100801.66;;;9.87;90.36
54924;BME280;40825;52.270;20.984;2022-09-21T02:53:44;100804.27;;;9.86;90.14
54924;BME280;40825;52.270;20.984;2022-09-21T02:54:12;100802.91;;;9.85;90.29
54924;BME280;40825;52.270;20.984;2022-09-21T02:54:35;100805.77;;;9.85;90.10
54924;BME280;40825;52.270;20.984;2022-09-21T02:55:12;100805.52;;;9.85;90.05
54924;BME280;40825;52.270;20.984;2022-09-21T02:55:35;100806.35;;;9.84;90.05
54924;BME280;40825;52.270;20.984;2022-09-21T02:56:05;100803.39;;;9.83;90.07
54924;BME280;40825;52.270;20.984;2022-09-21T02:56:35;100810.01;;;9.84;90.24
54924;BME280;40825;52.270;20.984;2022-09-21T02:56:59;100807.01;;;9.84;90.43
54924;BME280;40825;52.270;20.984;2022-09-21T02:57:29;100805.12;;;9.83;90.34
54924;BME280;40825;52.270;20.984;2022-09-21T02:57:53;100806.27;;;9.84;90.17
54924;BME280;40825;52.270;20.984;2022-09-21T02:58:19;100804.98;;;9.83;90.30
54924;BME280;40825;52.270;20.984;2022-09-21T02:58:50;100805.79;;;9.82;90.29
54924;BME280;40825;52.270;20.984;2022-09-21T02:59:17;100806.86;;;9.82;90.22
54924;BME280;40825;52.270;20.984;2022-09-21T02:59:44;100806.50;;;9.82;90.09
54924;BME280;40825;52.270;20.984;2022-09-21T03:00:13;100810.05;;;9.82;89.96
54924;BME280;40825;52.270;20.984;2022-09-21T03:00:48;100806.75;;;9.83;90.06
54924;BME280;40825;52.270;20.984;2022-09-21T03:01:27;100808.12;;;9.84;90.09
54924;BME280;40825;52.270;20.984;2022-09-21T03:02:40;100809.02;;;9.85;89.99
54924;BME280;40825;52.270;20.984;2022-09-21T03:03:15;100809.31;;;9.86;90.01
54924;BME280;40825;52.270;20.984;2022-09-21T03:03:45;100804.77;;;9.86;90.02
54924;BME280;40825;52.270;20.984;2022-09-21T03:04:11;100806.73;;;9.86;90.07
54924;BME280;40825;52.270;20.984;2022-09-21T03:04:33;100808.80;;;9.87;90.06
54924;BME280;40825;52.270;20.984;2022-09-21T03:04:59;100807.53;;;9.87;90.12
54924;BME280;40825;52.270;20.984;2022-09-21T03:05:25;100809.23;;;9.88;90.05
54924;BME280;40825;52.270;20.984;2022-09-21T03:06:13;100810.79;;;9.88;90.07
54924;BME280;40825;52.270;20.984;2022-09-21T03:06:37;100810.48;;;9.89;90.23
54924;BME280;40825;52.270;20.984;2022-09-21T03:07:01;100811.45;;;9.88;90.09
54924;BME280;40825;52.270;20.984;2022-09-21T03:07:37;100809.98;;;9.89;90.04
54924;BME280;40825;52.270;20.984;2022-09-21T03:08:08;100808.05;;;9.89;90.02
54924;BME280;40825;52.270;20.984;2022-09-21T03:08:38;100811.30;;;9.90;90.14
54924;BME280;40825;52.270;20.984;2022-09-21T03:09:14;100807.44;;;9.89;90.54
54924;BME280;40825;52.270;20.984;2022-09-21T03:09:42;100805.61;;;9.90;90.35
54924;BME280;40825;52.270;20.984;2022-09-21T03:10:04;100807.79;;;9.89;90.28
54924;BME280;40825;52.270;20.984;2022-09-21T03:10:29;100809.21;;;9.89;90.14
54924;BME280;40825;52.270;20.984;2022-09-21T03:10:58;100811.19;;;9.89;90.07
54924;BME280;40825;52.270;20.984;2022-09-21T03:11:40;100810.29;;;9.89;90.10
54924;BME280;40825;52.270;20.984;2022-09-21T03:12:04;100809.82;;;9.89;90.00
54924;BME280;40825;52.270;20.984;2022-09-21T03:12:26;100809.71;;;9.90;90.05
54924;BME280;40825;52.270;20.984;2022-09-21T03:12:51;100805.02;;;9.89;90.05
54924;BME280;40825;52.270;20.984;2022-09-21T03:13:18;100805.35;;;9.89;90.15
54924;BME280;40825;52.270;20.984;2022-09-21T03:13:49;100807.84;;;9.89;90.17
54924;BME280;40825;52.270;20.984;2022-09-21T03:14:27;100808.34;;;9.89;90.81
54924;BME280;40825;52.270;20.984;2022-09-21T03:14:54;100809.23;;;9.88;90.30
54924;BME280;40825;52.270;20.984;2022-09-21T03:15:22;100809.95;;;9.86;90.23
54924;BME280;40825;52.270;20.984;2022-09-21T03:15:48;100809.20;;;9.85;90.21